Time;durP1;ratioP1;P1;durP2;ratioP2;P2;SDS_P1;SDS_P2;PMS_P1;PMS_P2;Temp;Humidity;BMP_temperature;BMP_pressure;BME280_temperature;BME280_humidity;BME280_pressure;Samples;Min_cycle;Max_cycle;Signal;HPM_P1;HPM_P2
2021/05/08 00:00:17;;;;;;;4.47;4.00;;;6.50;99.80;;;;;;4972487;28;20140;-58
2021/05/08 00:02:43;;;;;;;4.97;4.43;;;6.50;99.20;;;;;;4976070;28;20058;-52
2021/05/08 00:05:09;;;;;;;7.30;4.97;;;6.40;99.30;;;;;;5003574;28;20030;-52
2021/05/08 00:07:34;;;;;;;8.57;4.45;;;6.40;99.80;;;;;;4989925;28;20041;-50
2021/05/08 00:10:00;;;;;;;3.95;3.63;;;6.40;99.90;;;;;;4990808;28;20038;-51
2021/05/08 00:12:25;;;;;;;6.15;4.50;;;6.30;99.90;;;;;;4993739;28;20038;-53
2021/05/08 00:14:51;;;;;;;5.05;4.20;;;6.30;99.90;;;;;;4994074;28;20117;-46
2021/05/08 00:17:16;;;;;;;8.13;4.75;;;6.20;99.90;;;;;;4993187;28;20551;-47
2021/05/08 00:19:42;;;;;;;4.78;4.38;;;6.20;99.90;;;;;;4992967;28;20022;-49
2021/05/08 00:22:07;;;;;;;4.60;4.20;;;6.30;99.90;;;;;;4992939;28;20026;-47
2021/05/08 00:24:33;;;;;;;4.65;4.22;;;6.30;99.80;;;;;;4991449;28;20423;-47
2021/05/08 00:26:58;;;;;;;4.63;4.15;;;6.30;99.70;;;;;;4985186;28;20073;-46
2021/05/08 00:29:24;;;;;;;8.70;4.30;;;6.30;99.70;;;;;;4988473;28;20126;-50
2021/05/08 00:31:49;;;;;;;6.95;4.43;;;6.30;99.60;;;;;;4991388;28;20023;-41
2021/05/08 00:34:15;;;;;;;5.40;4.72;;;6.20;99.70;;;;;;4973331;28;20022;-46
2021/05/08 00:36:40;;;;;;;7.60;4.07;;;6.20;99.80;;;;;;4973555;28;20058;-49
2021/05/08 00:39:06;;;;;;;4.80;4.25;;;6.20;99.90;;;;;;4973041;28;20117;-49
2021/05/08 00:41:32;;;;;;;5.32;4.32;;;6.20;99.40;;;;;;4973078;28;20031;-44
2021/05/08 00:43:58;;;;;;;4.40;3.97;;;6.20;99.20;;;;;;4974393;28;20106;-47
2021/05/08 00:46:26;;;;;;;8.82;4.30;;;6.10;99.20;;;;;;4992826;28;20113;-45
2021/05/08 00:48:54;;;;;;;4.85;4.07;;;6.20;99.50;;;;;;4992554;28;20084;-45
2021/05/08 00:53:57;;;;;;;6.20;3.95;;;6.20;99.20;;;;;;4970834;28;20054;-46
2021/05/08 00:56:22;;;;;;;9.57;4.38;;;6.00;99.40;;;;;;4973391;28;20089;-48
2021/05/08 00:58:48;;;;;;;6.00;4.25;;;5.90;99.80;;;;;;4973011;28;20284;-45
2021/05/08 01:01:13;;;;;;;5.75;4.38;;;5.80;99.90;;;;;;4972881;28;20026;-48
2021/05/08 01:03:43;;;;;;;8.68;5.03;;;5.70;99.90;;;;;;4972103;28;20469;-45
2021/05/08 01:06:08;;;;;;;6.05;4.47;;;5.70;99.90;;;;;;4972927;28;20158;-43
2021/05/08 01:08:34;;;;;;;5.07;4.28;;;5.50;99.90;;;;;;4972865;28;20106;-47
2021/05/08 01:11:00;;;;;;;7.65;4.40;;;5.40;99.90;;;;;;4972890;28;20027;-45
2021/05/08 01:13:25;;;;;;;5.03;4.13;;;5.30;99.90;;;;;;4971952;28;20031;-47
2021/05/08 01:15:51;;;;;;;5.60;5.03;;;5.40;99.90;;;;;;4969834;28;20034;-48
2021/05/08 01:18:17;;;;;;;6.25;4.43;;;5.30;99.90;;;;;;4972572;28;20049;-48
2021/05/08 01:20:42;;;;;;;4.80;4.35;;;5.30;99.90;;;;;;4972525;28;20495;-44
2021/05/08 01:23:08;;;;;;;4.40;4.00;;;5.30;99.90;;;;;;4972004;28;20110;-44
2021/05/08 01:25:33;;;;;;;4.93;4.32;;;5.30;99.90;;;;;;4972469;28;20056;-46
2021/05/08 01:28:01;;;;;;;6.57;4.95;;;5.40;99.90;;;;;;4972628;28;20027;-46
2021/05/08 01:30:33;;;;;;;8.93;5.68;;;5.50;99.90;;;;;;4972862;28;20051;-44
2021/05/08 01:32:59;;;;;;;7.55;5.15;;;5.60;99.90;;;;;;4972374;28;20022;-51
2021/05/08 01:35:27;;;;;;;8.90;5.07;;;5.50;99.90;;;;;;4971879;28;20098;-46
2021/05/08 01:37:53;;;;;;;16.00;5.90;;;5.40;99.90;;;;;;4972020;28;20042;-44
2021/05/08 01:40:24;;;;;;;5.60;5.10;;;5.40;99.90;;;;;;4971927;28;20504;-45
2021/05/08 01:42:51;;;;;;;7.20;6.03;;;5.20;99.90;;;;;;4972158;28;20046;-47
2021/05/08 01:45:19;;;;;;;7.82;4.75;;;5.10;99.90;;;;;;4971487;28;20029;-46
2021/05/08 01:47:45;;;;;;;8.38;5.15;;;5.00;99.90;;;;;;4970947;28;20069;-45
2021/05/08 01:50:14;;;;;;;5.43;4.50;;;5.00;99.90;;;;;;4972090;28;20082;-44
2021/05/08 01:52:41;;;;;;;5.97;5.45;;;4.90;99.90;;;;;;4968499;28;20408;-48
2021/05/08 01:55:12;;;;;;;5.22;4.72;;;4.80;99.90;;;;;;4971883;28;20423;-46
2021/05/08 01:57:46;;;;;;;5.45;4.88;;;4.80;99.90;;;;;;4970301;28;20124;-47
2021/05/08 02:00:24;;;;;;;6.70;5.63;;;4.70;99.90;;;;;;4972169;28;20114;-46
2021/05/08 02:02:52;;;;;;;5.88;5.25;;;4.70;99.90;;;;;;4971883;28;20019;-46
2021/05/08 02:05:18;;;;;;;6.90;5.60;;;4.70;99.90;;;;;;4971157;28;20027;-50
2021/05/08 02:07:44;;;;;;;6.85;5.70;;;4.70;99.90;;;;;;4970416;28;20435;-46
2021/05/08 02:10:13;;;;;;;6.40;5.68;;;4.60;99.90;;;;;;4971884;28;20035;-51
2021/05/08 02:12:38;;;;;;;7.63;5.93;;;4.50;99.90;;;;;;4970322;28;20030;-45
2021/05/08 02:15:09;;;;;;;8.07;4.82;;;4.40;99.90;;;;;;4971169;28;20030;-46
2021/05/08 02:17:35;;;;;;;6.72;5.53;;;4.50;99.90;;;;;;4971602;28;20150;-45
2021/05/08 02:20:01;;;;;;;6.32;5.53;;;4.50;99.90;;;;;;4971643;28;20078;-48
2021/05/08 02:22:26;;;;;;;6.57;5.80;;;4.40;99.90;;;;;;4971520;28;20531;-45
2021/05/08 02:24:52;;;;;;;8.93;5.72;;;4.30;99.90;;;;;;4970979;28;20077;-45
2021/05/08 02:27:18;;;;;;;7.50;5.47;;;4.30;99.90;;;;;;4971473;28;20146;-43
2021/05/08 02:29:44;;;;;;;8.18;6.10;;;4.40;99.90;;;;;;4971340;28;20027;-45
2021/05/08 02:32:09;;;;;;;9.50;5.35;;;4.50;99.90;;;;;;4971365;28;20035;-46
2021/05/08 02:34:35;;;;;;;12.50;7.03;;;4.60;99.90;;;;;;4969787;28;20480;-46
2021/05/08 02:37:01;;;;;;;7.55;5.80;;;4.40;99.90;;;;;;4971606;28;20027;-48
2021/05/08 02:39:28;;;;;;;6.85;6.15;;;4.40;99.90;;;;;;4971267;28;20018;-50
2021/05/08 02:41:53;;;;;;;6.68;5.97;;;4.30;99.90;;;;;;4971193;28;20026;-46
2021/05/08 02:44:19;;;;;;;6.32;5.72;;;4.30;99.90;;;;;;4970840;28;20484;-47
2021/05/08 02:46:45;;;;;;;6.78;6.18;;;4.30;99.90;;;;;;4971377;28;20031;-49
2021/05/08 02:49:10;;;;;;;6.15;5.55;;;4.30;99.90;;;;;;4971086;28;20034;-49
2021/05/08 02:51:36;;;;;;;8.30;6.10;;;4.30;99.90;;;;;;4970512;28;20045;-49
2021/05/08 02:54:02;;;;;;;6.88;6.03;;;4.30;99.90;;;;;;4970845;28;20105;-50
2021/05/08 02:56:27;;;;;;;10.65;5.78;;;4.40;99.90;;;;;;4970421;28;20093;-47
2021/05/08 02:58:52;;;;;;;9.02;6.20;;;4.30;99.90;;;;;;4971298;28;20038;-45
2021/05/08 03:01:18;;;;;;;5.95;5.30;;;4.30;99.90;;;;;;4971150;28;20033;-44
2021/05/08 03:03:43;;;;;;;8.07;4.88;;;4.30;99.90;;;;;;4971184;28;20119;-47
2021/05/08 03:06:09;;;;;;;6.45;5.03;;;4.30;99.90;;;;;;4974456;28;20042;-44
2021/05/08 03:08:34;;;;;;;6.00;5.25;;;4.50;99.90;;;;;;4974849;28;20396;-49
2021/05/08 03:11:00;;;;;;;5.05;4.60;;;4.50;99.90;;;;;;4974648;28;20388;-49
2021/05/08 03:13:25;;;;;;;7.32;6.28;;;4.40;99.90;;;;;;4973088;28;20042;-47
2021/05/08 03:15:51;;;;;;;7.72;5.80;;;4.40;99.90;;;;;;4972990;28;20995;-44
2021/05/08 03:18:16;;;;;;;6.35;5.70;;;4.20;99.90;;;;;;4974573;28;20027;-48
2021/05/08 03:20:42;;;;;;;7.03;5.57;;;4.20;99.90;;;;;;4973092;28;20090;-50
2021/05/08 03:23:08;;;;;;;8.15;5.32;;;4.00;99.90;;;;;;4973658;28;20054;-44
2021/05/08 03:25:33;;;;;;;6.45;5.85;;;3.90;99.90;;;;;;4974274;28;20031;-49
2021/05/08 03:27:59;;;;;;;7.15;6.00;;;3.90;99.90;;;;;;4974085;28;20102;-47
2021/05/08 03:30:24;;;;;;;6.30;5.70;;;3.80;99.90;;;;;;4975304;28;20488;-49
2021/05/08 03:32:50;;;;;;;6.88;6.05;;;3.80;99.90;;;;;;4974884;28;20027;-48
2021/05/08 03:35:15;;;;;;;6.97;6.20;;;3.80;99.90;;;;;;4974809;28;20102;-48
2021/05/08 03:37:41;;;;;;;8.40;6.25;;;3.90;99.90;;;;;;4974789;28;20070;-47
2021/05/08 03:40:07;;;;;;;6.43;5.78;;;3.80;99.90;;;;;;4974534;28;20027;-46
2021/05/08 03:42:32;;;;;;;7.40;5.25;;;3.80;99.90;;;;;;4975019;28;20117;-49
2021/05/08 03:44:58;;;;;;;6.05;5.45;;;3.80;99.90;;;;;;4973587;28;20122;-45
2021/05/08 03:47:23;;;;;;;6.82;5.80;;;3.90;99.90;;;;;;4972844;28;20027;-44
2021/05/08 03:49:49;;;;;;;8.80;6.00;;;3.80;99.90;;;;;;4973937;28;20026;-46
2021/05/08 03:52:15;;;;;;;6.75;5.95;;;3.80;99.90;;;;;;4972262;28;20583;-48
2021/05/08 03:54:40;;;;;;;5.80;5.25;;;3.80;99.90;;;;;;4971985;28;20030;-46
2021/05/08 03:57:06;;;;;;;9.05;6.97;;;3.60;99.90;;;;;;4973881;28;20038;-46
2021/05/08 03:59:32;;;;;;;7.45;6.65;;;3.60;99.90;;;;;;4973753;28;20133;-50
2021/05/08 04:01:57;;;;;;;7.22;6.28;;;3.60;99.90;;;;;;4972460;28;20037;-51
2021/05/08 04:04:23;;;;;;;5.75;5.15;;;3.60;99.90;;;;;;4973042;28;20113;-45
2021/05/08 04:06:49;;;;;;;5.28;4.78;;;3.60;99.90;;;;;;4973698;28;20045;-44
2021/05/08 04:09:14;;;;;;;6.07;5.47;;;3.60;99.90;;;;;;4973711;28;20130;-48
2021/05/08 04:11:40;;;;;;;7.50;5.70;;;3.60;99.90;;;;;;4973723;28;20050;-48
2021/05/08 04:14:06;;;;;;;6.32;5.70;;;3.50;99.90;;;;;;4972758;28;20093;-49
2021/05/08 04:16:32;;;;;;;5.78;5.28;;;3.40;99.90;;;;;;4973589;28;20029;-50
2021/05/08 04:18:59;;;;;;;6.00;5.40;;;3.40;99.90;;;;;;4972206;28;20022;-53
2021/05/08 04:21:25;;;;;;;6.60;5.85;;;3.50;99.90;;;;;;4973731;28;20046;-44
2021/05/08 04:23:51;;;;;;;5.95;5.25;;;3.50;99.90;;;;;;4972931;28;20067;-44
2021/05/08 04:26:17;;;;;;;7.10;5.50;;;3.40;99.90;;;;;;4973293;28;20027;-44
2021/05/08 04:28:43;;;;;;;7.45;6.20;;;3.40;99.90;;;;;;4973012;28;20404;-46
2021/05/08 04:31:08;;;;;;;10.15;5.43;;;3.50;99.90;;;;;;4973109;28;20023;-46
2021/05/08 04:33:34;;;;;;;7.43;5.32;;;3.50;99.90;;;;;;4972500;28;20526;-51
2021/05/08 04:35:59;;;;;;;7.72;5.07;;;3.50;99.90;;;;;;4971681;28;20026;-44
2021/05/08 04:38:25;;;;;;;8.18;5.80;;;3.70;99.90;;;;;;4973208;28;20484;-47
2021/05/08 04:40:54;;;;;;;9.43;6.00;;;3.80;99.90;;;;;;4973058;28;20186;-50
2021/05/08 04:43:20;;;;;;;6.32;5.78;;;3.80;99.90;;;;;;4972516;28;20492;-45
2021/05/08 04:45:46;;;;;;;6.30;5.60;;;4.00;99.90;;;;;;4972935;28;20042;-44
2021/05/08 04:48:11;;;;;;;8.07;5.63;;;4.00;99.90;;;;;;4971371;28;20044;-47
2021/05/08 04:50:37;;;;;;;5.55;5.05;;;4.20;99.90;;;;;;4972640;28;20034;-49
2021/05/08 04:53:02;;;;;;;6.70;6.10;;;4.30;99.90;;;;;;4972191;28;20133;-48
2021/05/08 04:55:28;;;;;;;7.55;5.05;;;4.30;99.90;;;;;;4972491;28;20035;-44
2021/05/08 04:57:53;;;;;;;7.03;6.07;;;4.40;99.90;;;;;;4971362;28;20042;-47
2021/05/08 05:00:19;;;;;;;6.80;5.65;;;4.60;99.90;;;;;;4972717;28;20381;-49
2021/05/08 05:02:46;;;;;;;8.05;5.55;;;4.60;99.90;;;;;;4972552;28;20559;-50
2021/05/08 05:05:13;;;;;;;5.60;5.20;;;4.80;99.90;;;;;;4972347;28;20034;-48
2021/05/08 05:07:41;;;;;;;5.22;4.72;;;4.90;99.90;;;;;;4972521;28;20215;-44
2021/05/08 05:10:08;;;;;;;5.07;4.60;;;5.00;99.90;;;;;;4972603;28;20440;-49
2021/05/08 05:12:33;;;;;;;8.20;5.00;;;5.10;99.80;;;;;;4972775;28;20026;-48
2021/05/08 05:14:59;;;;;;;7.28;4.97;;;5.50;99.10;;;;;;4972456;28;20388;-46
2021/05/08 05:17:24;;;;;;;5.07;4.57;;;5.60;98.80;;;;;;4971608;28;20034;-45
2021/05/08 05:19:50;;;;;;;5.70;5.07;;;5.60;98.90;;;;;;4972791;28;20369;-46
2021/05/08 05:22:15;;;;;;;6.43;5.00;;;5.90;98.70;;;;;;4972349;28;20026;-48
2021/05/08 05:24:41;;;;;;;7.57;5.20;;;6.10;98.00;;;;;;4971649;28;20030;-47
2021/05/08 05:27:06;;;;;;;5.90;5.40;;;6.30;98.10;;;;;;4969983;28;20031;-44
2021/05/08 05:29:32;;;;;;;6.57;5.05;;;6.70;97.00;;;;;;4972221;28;20042;-47
2021/05/08 05:31:57;;;;;;;9.07;5.22;;;6.80;97.00;;;;;;4971806;28;20563;-51
2021/05/08 05:34:23;;;;;;;6.20;5.63;;;6.90;96.60;;;;;;4969796;28;20447;-50
2021/05/08 05:36:48;;;;;;;5.72;4.50;;;6.90;96.30;;;;;;4971836;28;20465;-47
2021/05/08 05:39:14;;;;;;;7.45;5.57;;;6.90;96.90;;;;;;4972019;28;20054;-46
2021/05/08 05:41:39;;;;;;;5.40;4.90;;;7.20;96.30;;;;;;4972497;28;20502;-49
2021/05/08 05:44:06;;;;;;;7.78;4.60;;;7.60;96.00;;;;;;4971191;28;20524;-43
2021/05/08 05:46:32;;;;;;;8.60;4.72;;;7.90;95.70;;;;;;4971774;28;20058;-46
2021/05/08 05:48:57;;;;;;;8.88;4.70;;;8.40;95.30;;;;;;4971469;28;20034;-47
2021/05/08 05:51:23;;;;;;;6.35;4.88;;;8.60;93.90;;;;;;4971513;28;20026;-44
2021/05/08 05:53:56;;;;;;;9.07;5.07;;;8.70;93.90;;;;;;4969943;28;20054;-47
2021/05/08 05:56:26;;;;;;;4.70;4.25;;;8.70;93.60;;;;;;4971647;28;20034;-50
2021/05/08 05:58:51;;;;;;;5.47;4.88;;;8.80;94.10;;;;;;4971554;28;20427;-46
2021/05/08 06:01:17;;;;;;;6.15;5.15;;;8.90;93.70;;;;;;4971415;28;20064;-47
2021/05/08 06:03:42;;;;;;;6.90;4.97;;;9.00;94.40;;;;;;4970555;28;20031;-49
2021/05/08 06:06:08;;;;;;;6.57;5.97;;;9.10;93.90;;;;;;4970215;28;20452;-46
2021/05/08 06:08:34;;;;;;;6.88;5.20;;;9.30;93.70;;;;;;4971424;28;20122;-45
2021/05/08 06:10:59;;;;;;;6.15;5.18;;;9.40;93.30;;;;;;4971450;28;20022;-45
2021/05/08 06:13:27;;;;;;;7.55;4.75;;;9.40;93.90;;;;;;4970720;28;20031;-49
2021/05/08 06:15:52;;;;;;;5.38;4.78;;;9.60;93.70;;;;;;4969823;28;20034;-48
2021/05/08 06:18:18;;;;;;;7.82;5.60;;;9.80;92.90;;;;;;4971210;28;20447;-49
2021/05/08 06:20:43;;;;;;;6.28;5.68;;;10.20;92.10;;;;;;4971180;28;20031;-45
2021/05/08 06:23:09;;;;;;;7.63;5.72;;;10.30;91.50;;;;;;4972364;28;20500;-49
2021/05/08 06:25:35;;;;;;;6.90;5.78;;;10.50;91.00;;;;;;4976898;28;20019;-51
2021/05/08 06:28:00;;;;;;;6.75;5.50;;;10.70;90.70;;;;;;4976870;28;20027;-52
2021/05/08 06:30:26;;;;;;;6.97;5.05;;;10.90;90.90;;;;;;4976950;28;20461;-51
2021/05/08 06:32:51;;;;;;;6.47;5.88;;;11.00;90.40;;;;;;4976770;28;20034;-51
2021/05/08 06:35:17;;;;;;;6.50;5.47;;;11.40;90.30;;;;;;4971416;28;20440;-49
2021/05/08 06:37:48;;;;;;;6.85;6.15;;;11.70;88.40;;;;;;4971186;28;20031;-44
2021/05/08 06:40:14;;;;;;;6.68;5.60;;;12.00;87.00;;;;;;4974343;28;20069;-47
2021/05/08 06:42:39;;;;;;;5.38;4.97;;;12.20;86.70;;;;;;4974828;28;20066;-45
2021/05/08 06:45:05;;;;;;;10.30;5.82;;;12.40;86.10;;;;;;4974063;28;20033;-44
2021/05/08 06:47:31;;;;;;;6.68;4.90;;;12.60;84.30;;;;;;4974966;28;20031;-44
2021/05/08 06:49:56;;;;;;;5.82;4.68;;;12.80;83.30;;;;;;4974916;28;20392;-45
2021/05/08 06:52:22;;;;;;;7.95;5.10;;;13.00;82.90;;;;;;4991624;23;20118;-45
2021/05/08 06:54:47;;;;;;;8.32;5.57;;;13.00;83.00;;;;;;4993866;28;20105;-47
2021/05/08 06:57:13;;;;;;;7.63;5.65;;;13.30;81.10;;;;;;4994553;28;20023;-44
2021/05/08 06:59:38;;;;;;;5.88;5.38;;;13.30;80.90;;;;;;4994945;28;20080;-49
2021/05/08 07:02:04;;;;;;;7.78;5.07;;;13.60;80.30;;;;;;4994358;28;20025;-48
2021/05/08 07:04:31;;;;;;;9.48;5.18;;;13.60;77.60;;;;;;4994110;28;20011;-48
2021/05/08 07:06:56;;;;;;;6.32;4.85;;;13.70;78.50;;;;;;4994801;28;20034;-48
2021/05/08 07:09:22;;;;;;;6.20;4.47;;;14.00;79.20;;;;;;4994618;28;20045;-46
2021/05/08 07:11:47;;;;;;;6.78;6.07;;;14.40;78.20;;;;;;4994477;28;20058;-46
2021/05/08 07:14:14;;;;;;;5.45;4.97;;;14.70;73.90;;;;;;4994400;28;20050;-45
2021/05/08 07:16:39;;;;;;;5.68;5.18;;;14.50;73.00;;;;;;4993826;28;20495;-45
2021/05/08 07:19:05;;;;;;;5.50;5.00;;;14.50;73.30;;;;;;4977549;28;20058;-48
2021/05/08 07:21:30;;;;;;;7.32;5.03;;;14.40;73.20;;;;;;4972986;28;20490;-49
2021/05/08 07:23:56;;;;;;;6.28;5.57;;;14.60;73.10;;;;;;4972594;28;20476;-46
2021/05/08 07:26:21;;;;;;;5.38;4.88;;;14.40;73.00;;;;;;4974009;28;20287;-42
2021/05/08 07:28:47;;;;;;;6.10;5.50;;;14.30;74.00;;;;;;4975038;28;20033;-47
2021/05/08 07:31:13;;;;;;;6.55;5.43;;;14.40;74.90;;;;;;4974712;28;20027;-47
2021/05/08 07:33:38;;;;;;;5.63;5.13;;;14.40;74.90;;;;;;4973919;28;20550;-45
2021/05/08 07:36:04;;;;;;;5.82;5.10;;;14.50;73.50;;;;;;4974513;28;20053;-46
2021/05/08 07:38:30;;;;;;;5.78;4.80;;;14.60;73.50;;;;;;4974541;28;20031;-48
2021/05/08 07:40:55;;;;;;;5.47;4.95;;;14.70;70.90;;;;;;4974293;28;20594;-49
2021/05/08 07:43:22;;;;;;;5.15;4.57;;;14.60;71.60;;;;;;4973912;28;20612;-47
2021/05/08 07:45:49;;;;;;;7.15;4.60;;;14.90;72.70;;;;;;4974553;28;20052;-48
2021/05/08 07:48:14;;;;;;;4.68;4.28;;;15.60;70.90;;;;;;4974736;28;20086;-47
2021/05/08 07:50:40;;;;;;;8.32;4.45;;;16.40;68.50;;;;;;4972129;28;20480;-48
2021/05/08 07:53:06;;;;;;;5.40;4.72;;;17.30;66.20;;;;;;4973240;28;20515;-45
2021/05/08 07:55:33;;;;;;;7.25;5.38;;;18.20;63.20;;;;;;4974273;28;20045;-46
2021/05/08 07:57:58;;;;;;;6.53;4.18;;;19.00;58.50;;;;;;4974081;28;20381;-45
2021/05/08 08:00:24;;;;;;;5.35;4.72;;;19.10;58.80;;;;;;4974271;28;20022;-48
2021/05/08 08:02:50;;;;;;;4.15;3.75;;;19.60;56.60;;;;;;4973852;28;20046;-52
2021/05/08 08:05:17;;;;;;;4.72;4.32;;;19.70;56.50;;;;;;4973346;28;20038;-46
2021/05/08 08:07:42;;;;;;;5.57;4.80;;;19.80;55.40;;;;;;4973961;28;20098;-47
2021/05/08 08:10:09;;;;;;;6.35;5.75;;;19.40;54.20;;;;;;4973687;28;20105;-47
2021/05/08 08:12:36;;;;;;;6.75;5.22;;;18.30;55.60;;;;;;4974678;28;20042;-46
2021/05/08 08:15:02;;;;;;;5.63;5.13;;;16.90;58.50;;;;;;4982063;28;20385;-47
2021/05/08 08:17:28;;;;;;;6.35;5.43;;;16.10;61.00;;;;;;4983288;28;20093;-49
2021/05/08 08:19:53;;;;;;;6.30;5.13;;;15.70;62.50;;;;;;4975812;28;20085;-48
2021/05/08 08:22:19;;;;;;;8.95;5.20;;;15.50;64.00;;;;;;4973879;28;20325;-49
2021/05/08 08:24:44;;;;;;;9.60;5.50;;;15.30;64.90;;;;;;4974318;28;20110;-49
2021/05/08 08:27:11;;;;;;;5.78;5.30;;;15.30;65.40;;;;;;4980517;28;20030;-52
2021/05/08 08:29:37;;;;;;;5.45;5.05;;;15.20;64.40;;;;;;4993037;28;20026;-46
2021/05/08 08:32:03;;;;;;;5.93;5.30;;;14.80;65.80;;;;;;4972166;28;20050;-46
2021/05/08 08:34:28;;;;;;;6.85;6.15;;;14.40;68.50;;;;;;4983130;28;20023;-46
2021/05/08 08:36:54;;;;;;;6.35;5.75;;;14.20;68.40;;;;;;4984127;28;20026;-47
2021/05/08 08:39:20;;;;;;;6.00;5.40;;;13.80;69.20;;;;;;4979555;28;20023;-50
2021/05/08 08:41:45;;;;;;;9.18;6.38;;;13.60;71.10;;;;;;4987317;28;20026;-44
2021/05/08 08:44:11;;;;;;;7.40;6.53;;;13.70;71.60;;;;;;4986043;28;20169;-45
2021/05/08 08:46:44;;;;;;;7.30;6.60;;;13.60;72.10;;;;;;4977939;28;20031;-51
2021/05/08 08:49:11;;;;;;;10.45;7.32;;;13.60;73.30;;;;;;4976010;28;20058;-47
2021/05/08 08:51:39;;;;;;;7.07;5.93;;;13.50;74.20;;;;;;4988391;28;20081;-48
2021/05/08 08:54:05;;;;;;;7.47;6.28;;;13.40;75.00;;;;;;4988660;28;20041;-45
2021/05/08 08:56:34;;;;;;;6.22;5.63;;;13.30;75.30;;;;;;4991030;28;20049;-48
2021/05/08 08:59:11;;;;;;;7.55;6.35;;;13.30;75.50;;;;;;4990690;28;20038;-43
2021/05/08 09:01:37;;;;;;;7.15;6.15;;;13.40;76.90;;;;;;4986874;28;20045;-42
2021/05/08 09:04:03;;;;;;;7.72;6.15;;;13.70;75.50;;;;;;4983817;28;20023;-49
2021/05/08 09:06:28;;;;;;;7.35;6.65;;;13.90;75.80;;;;;;4971053;28;20038;-48
2021/05/08 09:08:56;;;;;;;7.32;6.57;;;14.20;73.40;;;;;;4972479;28;20106;-47
2021/05/08 09:11:24;;;;;;;10.88;6.68;;;14.40;73.50;;;;;;4979396;28;20026;-46
2021/05/08 09:14:14;;;;;;;6.75;6.05;;;14.40;73.80;;;;;;4972251;28;20130;-49
2021/05/08 09:16:59;;;;;;;6.75;6.13;;;14.50;74.20;;;;;;4982087;28;20034;-45
2021/05/08 09:19:25;;;;;;;7.13;5.88;;;14.50;74.00;;;;;;4977743;28;20031;-47
2021/05/08 09:21:50;;;;;;;7.13;6.43;;;14.40;75.30;;;;;;4980698;28;20034;-46
2021/05/08 09:24:16;;;;;;;7.22;6.43;;;14.50;74.30;;;;;;4972109;28;20034;-46
2021/05/08 09:26:44;;;;;;;6.78;6.13;;;14.70;73.90;;;;;;4978987;28;20035;-50
2021/05/08 09:29:22;;;;;;;7.50;6.53;;;14.60;73.00;;;;;;4991428;28;20081;-46
2021/05/08 09:31:56;;;;;;;10.00;6.30;;;14.80;72.40;;;;;;4990314;28;20022;-46
2021/05/08 09:34:22;;;;;;;6.53;5.85;;;14.80;71.40;;;;;;4991314;28;20038;-49
2021/05/08 09:36:56;;;;;;;8.30;6.53;;;15.00;71.90;;;;;;4973865;28;20515;-47
2021/05/08 09:39:37;;;;;;;10.02;6.45;;;15.00;70.90;;;;;;4982261;28;20041;-46
2021/05/08 09:42:02;;;;;;;11.65;5.90;;;15.10;70.40;;;;;;4969401;28;20031;-47
2021/05/08 09:44:28;;;;;;;5.65;4.80;;;15.00;70.50;;;;;;4972478;28;20716;-46
2021/05/08 09:46:55;;;;;;;6.82;5.95;;;15.00;71.10;;;;;;4972059;28;20584;-43
2021/05/08 09:49:21;;;;;;;5.30;4.75;;;15.20;71.10;;;;;;4974413;28;20022;-46
2021/05/08 09:52:00;;;;;;;8.35;5.10;;;15.00;68.50;;;;;;4980673;28;20440;-46
2021/05/08 09:54:26;;;;;;;6.72;4.97;;;14.90;69.10;;;;;;4984641;28;20088;-54
2021/05/08 09:56:52;;;;;;;6.53;4.53;;;14.70;69.50;;;;;;4978980;28;20084;-55
2021/05/08 09:59:25;;;;;;;5.55;4.97;;;14.60;68.70;;;;;;4991299;28;20031;-54
2021/05/08 10:02:12;;;;;;;7.70;5.10;;;14.60;69.20;;;;;;4986940;28;20373;-55
2021/05/08 10:04:57;;;;;;;8.90;5.10;;;14.90;70.30;;;;;;4986004;28;20026;-49
2021/05/08 10:07:25;;;;;;;6.93;4.80;;;15.10;69.20;;;;;;4989719;28;20462;-54
2021/05/08 10:09:59;;;;;;;5.78;4.70;;;15.20;69.00;;;;;;4991371;28;20555;-53
2021/05/08 10:12:27;;;;;;;8.43;5.50;;;15.40;69.00;;;;;;4988296;28;20076;-54
2021/05/08 10:14:56;;;;;;;6.45;5.05;;;15.50;67.90;;;;;;4985657;28;20092;-51
2021/05/08 10:17:26;;;;;;;4.80;4.13;;;15.60;68.70;;;;;;4990722;28;20460;-52
2021/05/08 10:20:00;;;;;;;7.30;3.90;;;15.60;66.00;;;;;;4985617;28;20031;-53
2021/05/08 10:22:32;;;;;;;6.43;3.90;;;15.70;66.80;;;;;;4971602;28;20408;-56
2021/05/08 10:25:02;;;;;;;3.97;3.55;;;15.70;64.80;;;;;;4973443;28;20129;-57
2021/05/08 10:27:28;;;;;;;3.53;3.22;;;15.60;64.90;;;;;;4990563;28;20026;-57
2021/05/08 10:29:54;;;;;;;8.75;4.95;;;15.60;63.60;;;;;;4988125;28;20034;-52
2021/05/08 10:32:20;;;;;;;4.43;3.13;;;15.70;65.00;;;;;;4971376;28;20455;-55
2021/05/08 10:34:51;;;;;;;3.83;3.08;;;15.80;66.50;;;;;;4971631;28;20034;-55
2021/05/08 10:37:17;;;;;;;3.83;2.97;;;15.70;64.20;;;;;;4985400;28;20515;-53
2021/05/08 10:40:05;;;;;;;8.57;3.78;;;15.70;61.90;;;;;;4990414;28;20030;-56
2021/05/08 10:42:35;;;;;;;4.10;2.78;;;15.80;60.80;;;;;;4990668;28;20033;-52
2021/05/08 10:45:21;;;;;;;4.03;2.90;;;15.80;59.70;;;;;;4988767;28;20115;-53
2021/05/08 10:47:52;;;;;;;;;;;15.80;60.50;;;;;;4977766;28;20046;-50
2021/05/08 10:50:37;;;;;;;4.88;2.60;;;15.70;59.40;;;;;;4989404;28;20307;-54
2021/05/08 10:53:11;;;;;;;3.13;2.70;;;15.80;59.20;;;;;;4988968;28;20038;-52
2021/05/08 10:55:45;;;;;;;6.88;3.67;;;15.80;58.50;;;;;;4990907;28;20435;-53
2021/05/08 10:58:13;;;;;;;4.63;2.85;;;15.70;59.90;;;;;;4972455;28;20035;-55
2021/05/08 11:00:45;;;;;;;4.47;2.85;;;15.70;61.10;;;;;;4972626;28;20106;-51
2021/05/08 11:03:12;;;;;;;5.40;2.97;;;15.80;60.20;;;;;;4970716;28;20026;-49
2021/05/08 11:06:12;;;;;;;4.40;2.65;;;15.80;61.30;;;;;;4980481;28;20030;-51
2021/05/08 11:08:37;;;;;;;3.70;2.20;;;16.00;59.70;;;;;;4978580;28;20399;-48
2021/05/08 11:11:06;;;;;;;5.18;2.67;;;16.00;56.20;;;;;;4988069;28;20041;-49
2021/05/08 11:13:41;;;;;;;3.28;1.70;;;16.00;57.50;;;;;;4970810;28;20063;-52
2021/05/08 11:16:16;;;;;;;2.37;1.73;;;16.20;58.00;;;;;;4973537;28;20034;-55
2021/05/08 11:18:45;;;;;;;2.00;1.40;;;16.40;57.70;;;;;;4991380;28;20022;-51
2021/05/08 11:21:11;;;;;;;4.25;2.10;;;16.50;56.70;;;;;;4989023;28;20031;-54
2021/05/08 11:23:59;;;;;;;2.85;1.80;;;16.60;55.50;;;;;;4974910;28;20031;-52
2021/05/08 11:26:33;;;;;;;1.90;1.80;;;16.50;54.40;;;;;;4983410;28;20504;-55
2021/05/08 11:29:03;;;;;;;4.68;2.22;;;16.40;54.80;;;;;;4975487;28;20436;-51
2021/05/08 11:31:34;;;;;;;2.85;1.70;;;16.40;55.10;;;;;;4975071;28;20077;-54
2021/05/08 11:34:24;;;;;;;3.42;1.55;;;16.40;55.10;;;;;;4983408;28;20034;-53
2021/05/08 11:36:51;;;;;;;2.28;1.73;;;16.50;54.00;;;;;;4991235;28;20407;-52
2021/05/08 11:39:22;;;;;;;5.82;1.88;;;16.40;52.20;;;;;;4975942;28;20542;-53
2021/05/08 11:41:51;;;;;;;2.30;1.55;;;16.50;52.10;;;;;;4985401;28;20058;-52
2021/05/08 11:44:20;;;;;;;6.43;1.98;;;16.50;52.00;;;;;;4975259;28;20023;-43
2021/05/08 11:46:56;;;;;;;2.60;1.58;;;16.60;52.80;;;;;;4976613;28;20058;-42
2021/05/08 11:49:28;;;;;;;1.65;1.55;;;16.60;53.50;;;;;;4974946;28;20399;-46
2021/05/08 11:51:54;;;;;;;2.05;1.80;;;16.60;52.60;;;;;;4974174;28;20118;-46
2021/05/08 11:54:20;;;;;;;3.15;1.95;;;16.60;53.00;;;;;;4973972;28;20043;-42
2021/05/08 11:56:45;;;;;;;1.55;1.45;;;16.60;52.10;;;;;;4975294;28;20511;-46
2021/05/08 11:59:11;;;;;;;3.25;1.90;;;16.60;52.60;;;;;;4975599;28;20392;-40
2021/05/08 12:01:37;;;;;;;2.30;1.50;;;16.60;53.20;;;;;;4975692;28;20034;-41
2021/05/08 12:04:05;;;;;;;4.68;1.50;;;16.60;54.50;;;;;;4975874;28;20148;-44
2021/05/08 12:06:31;;;;;;;1.80;1.70;;;16.70;53.40;;;;;;4976278;28;20023;-44
2021/05/08 12:08:57;;;;;;;2.70;1.77;;;16.60;50.90;;;;;;4975338;28;20045;-43
2021/05/08 12:11:24;;;;;;;1.98;1.75;;;16.50;51.40;;;;;;4975595;28;20404;-44
2021/05/08 12:13:50;;;;;;;5.72;1.80;;;16.50;52.40;;;;;;4977571;28;20388;-42
2021/05/08 12:16:16;;;;;;;4.78;1.77;;;16.40;51.90;;;;;;4973689;28;20037;-42
2021/05/08 12:18:42;;;;;;;3.75;2.30;;;16.50;53.50;;;;;;4972555;28;20466;-43
2021/05/08 12:21:12;;;;;;;3.33;1.50;;;16.60;52.20;;;;;;4974172;28;20019;-41
2021/05/08 12:23:39;;;;;;;3.30;1.88;;;16.60;54.00;;;;;;4973663;28;20126;-40
2021/05/08 12:26:13;;;;;;;3.33;2.00;;;16.70;54.00;;;;;;4973195;28;20519;-44
2021/05/08 12:29:00;;;;;;;3.42;1.95;;;16.70;52.40;;;;;;4974878;28;20057;-46
2021/05/08 12:31:32;;;;;;;2.90;2.60;;;16.70;52.70;;;;;;4973825;28;20113;-44
2021/05/08 12:34:09;;;;;;;3.22;2.13;;;16.60;53.40;;;;;;4973265;28;20516;-47
2021/05/08 12:36:36;;;;;;;3.67;1.90;;;16.60;53.60;;;;;;4973232;28;20031;-44
2021/05/08 12:39:31;;;;;;;2.97;2.03;;;16.60;53.80;;;;;;4973425;28;20023;-41
2021/05/08 12:42:01;;;;;;;2.13;1.92;;;16.70;54.40;;;;;;4964657;28;20042;-46
2021/05/08 12:44:36;;;;;;;2.78;1.70;;;16.70;52.20;;;;;;4972991;28;20034;-40
2021/05/08 12:47:19;;;;;;;2.65;2.35;;;16.60;51.50;;;;;;4974370;28;20018;-43
2021/05/08 12:50:12;;;;;;;5.90;2.15;;;16.60;51.40;;;;;;4974103;28;20480;-42
2021/05/08 12:52:43;;;;;;;2.42;1.77;;;16.40;53.30;;;;;;4974422;28;20109;-48
2021/05/08 12:55:23;;;;;;;2.63;1.67;;;16.40;51.90;;;;;;4997814;23;20349;-49
2021/05/08 12:57:49;;;;;;;7.03;2.15;;;16.40;52.20;;;;;;4977952;28;20023;-47